createdAt,value
2018-06-02T00:02:13.541Z,95.70
2018-06-02T00:04:40.964Z,96.00
2018-06-02T00:07:09.301Z,96.50
2018-06-02T00:09:36.896Z,96.60
2018-06-02T00:12:05.114Z,96.80
2018-06-02T00:14:32.555Z,96.80
2018-06-02T00:16:59.974Z,97.00
2018-06-02T00:19:28.164Z,96.60
2018-06-02T00:21:56.690Z,95.90
2018-06-02T00:24:24.119Z,96.00
2018-06-02T00:26:51.608Z,96.50
2018-06-02T00:29:19.051Z,96.60
2018-06-02T00:31:46.726Z,96.40
2018-06-02T00:34:14.209Z,96.60
2018-06-02T00:36:41.655Z,97.00
2018-06-02T00:39:09.087Z,97.40
2018-06-02T00:41:36.649Z,97.20
2018-06-02T00:44:04.522Z,97.60
2018-06-02T00:46:31.946Z,96.40
2018-06-02T00:48:59.383Z,97.00
2018-06-02T00:51:26.814Z,98.10
2018-06-02T00:53:54.271Z,97.40
2018-06-02T00:56:21.723Z,97.70
2018-06-02T00:58:49.162Z,96.40
2018-06-02T01:01:16.762Z,97.70
2018-06-02T01:03:44.200Z,95.30
2018-06-02T01:06:11.613Z,96.70
2018-06-02T01:08:39.059Z,96.90
2018-06-02T01:11:07.250Z,99.00
2018-06-02T01:13:34.673Z,99.00
2018-06-02T01:16:02.102Z,99.70
2018-06-02T01:18:29.527Z,98.40
2018-06-02T01:20:57.074Z,98.50
2018-06-02T01:23:24.441Z,96.80
2018-06-02T01:25:52.064Z,97.60
2018-06-02T01:28:19.504Z,97.00
2018-06-02T01:30:46.941Z,98.90
2018-06-02T01:33:14.384Z,99.50
2018-06-02T01:35:41.819Z,99.70
2018-06-02T01:38:09.391Z,99.90
2018-06-02T01:40:36.846Z,99.80
2018-06-02T01:43:04.325Z,99.00
2018-06-02T01:45:31.798Z,99.40
2018-06-02T01:47:59.237Z,99.80
2018-06-02T01:50:26.732Z,99.60
2018-06-02T01:52:54.263Z,99.70
2018-06-02T01:55:21.704Z,99.60
2018-06-02T01:57:49.222Z,99.70
2018-06-02T02:00:16.652Z,99.90
2018-06-02T02:02:44.292Z,99.90
2018-06-02T02:05:11.693Z,99.90
2018-06-02T02:07:40.641Z,99.60
2018-06-02T02:10:08.138Z,99.60
2018-06-02T02:12:37.089Z,99.90
2018-06-02T02:15:04.816Z,99.90
2018-06-02T02:17:33.003Z,99.90
2018-06-02T02:20:00.429Z,99.90
2018-06-02T02:22:27.861Z,99.90
2018-06-02T02:24:57.531Z,99.90
2018-06-02T02:27:25.008Z,99.90
2018-06-02T02:29:52.510Z,99.90
2018-06-02T02:32:19.957Z,99.90
2018-06-02T02:34:47.489Z,99.90
2018-06-02T02:37:14.926Z,99.90
2018-06-02T02:39:42.594Z,99.90
2018-06-02T02:42:10.771Z,99.90
2018-06-02T02:44:38.250Z,99.90
2018-06-02T02:47:05.700Z,99.90
2018-06-02T02:49:33.138Z,99.90
2018-06-02T02:52:00.558Z,99.90
2018-06-02T02:54:27.982Z,99.90
2018-06-02T02:56:55.426Z,99.90
2018-06-02T02:59:23.090Z,99.90
2018-06-02T03:01:50.498Z,99.90
2018-06-02T03:04:18.961Z,99.90
2018-06-02T03:06:47.154Z,99.90
2018-06-02T03:09:14.666Z,99.90
2018-06-02T03:11:42.150Z,99.90
2018-06-02T03:14:10.397Z,99.90
2018-06-02T03:16:37.879Z,99.90
2018-06-02T03:19:05.323Z,99.90
2018-06-02T03:21:33.572Z,99.90
2018-06-02T03:24:01.071Z,99.90
2018-06-02T03:26:28.494Z,99.90
2018-06-02T03:28:55.928Z,99.90
2018-06-02T03:31:24.425Z,99.90
2018-06-02T03:33:51.858Z,99.90
2018-06-02T03:36:19.282Z,99.90
2018-06-02T03:38:47.962Z,99.90
2018-06-02T03:41:15.448Z,99.90
2018-06-02T03:43:43.694Z,99.90
2018-06-02T03:46:11.119Z,99.90
2018-06-02T03:48:38.640Z,99.90
2018-06-02T03:51:06.154Z,99.90
2018-06-02T03:53:34.674Z,99.90
2018-06-02T03:56:02.105Z,99.10
2018-06-02T03:58:29.549Z,99.90
2018-06-02T04:00:57.058Z,99.90
2018-06-02T04:03:25.985Z,99.90
2018-06-02T04:05:53.814Z,99.90
2018-06-02T04:08:21.247Z,99.90
2018-06-02T04:10:48.682Z,99.90
2018-06-02T04:13:16.156Z,99.90
2018-06-02T04:15:43.656Z,99.80
2018-06-02T04:18:11.911Z,99.10
2018-06-02T04:20:39.353Z,99.10
2018-06-02T04:23:06.777Z,99.90
2018-06-02T04:25:34.224Z,98.70
2018-06-02T04:28:02.475Z,99.90
2018-06-02T04:30:29.913Z,99.90
2018-06-02T04:32:57.327Z,99.90
2018-06-02T04:35:24.862Z,99.90
2018-06-02T04:37:53.062Z,99.90
2018-06-02T04:40:20.689Z,99.90
2018-06-02T04:42:48.170Z,99.70
2018-06-02T04:45:15.738Z,98.60
2018-06-02T04:47:43.209Z,99.90
2018-06-02T04:50:10.995Z,99.90
2018-06-02T04:52:38.441Z,99.90
2018-06-02T04:55:06.087Z,99.90
2018-06-02T04:57:34.121Z,99.90
2018-06-02T05:00:02.691Z,99.90
2018-06-02T05:02:30.131Z,99.90
2018-06-02T05:04:57.682Z,99.90
2018-06-02T05:07:25.122Z,99.90
2018-06-02T05:09:52.704Z,99.90
2018-06-02T05:12:20.258Z,99.90
2018-06-02T05:14:47.686Z,99.90
2018-06-02T05:17:15.189Z,99.90
2018-06-02T05:19:42.630Z,99.90
2018-06-02T05:22:10.066Z,99.90
2018-06-02T05:24:37.547Z,99.90
2018-06-02T05:27:05.002Z,99.90
2018-06-02T05:29:32.460Z,99.90
2018-06-02T05:31:59.994Z,99.90
2018-06-02T05:34:27.520Z,99.90
2018-06-02T05:36:55.728Z,99.90
2018-06-02T05:39:23.234Z,99.90
2018-06-02T05:41:50.797Z,99.90
2018-06-02T05:44:18.237Z,99.90
2018-06-02T05:46:46.507Z,99.90
2018-06-02T05:49:13.976Z,99.90
2018-06-02T05:51:41.526Z,99.90
2018-06-02T05:54:08.965Z,99.90
2018-06-02T05:56:36.491Z,99.90
2018-06-02T05:59:04.716Z,99.90
2018-06-02T06:01:32.179Z,99.90
2018-06-02T06:04:00.580Z,99.90
2018-06-02T06:06:28.043Z,99.90
2018-06-02T06:08:55.501Z,99.90
2018-06-02T06:11:22.947Z,99.90
2018-06-02T06:13:50.654Z,99.90
2018-06-02T06:16:18.878Z,99.90
2018-06-02T06:18:46.316Z,99.90
2018-06-02T06:21:13.826Z,99.90
2018-06-02T06:23:41.347Z,99.90
2018-06-02T06:26:08.800Z,99.90
2018-06-02T06:28:36.271Z,99.90
2018-06-02T06:31:03.777Z,99.90
2018-06-02T06:33:31.202Z,99.90
2018-06-02T06:35:58.626Z,99.90
2018-06-02T06:38:26.065Z,99.90
2018-06-02T06:40:53.520Z,99.90
2018-06-02T06:43:20.991Z,99.90
2018-06-02T06:45:48.482Z,99.90
2018-06-02T06:48:15.946Z,99.90
2018-06-02T06:50:44.244Z,99.90
2018-06-02T06:53:11.668Z,99.90
2018-06-02T06:55:39.179Z,99.90
2018-06-02T06:58:07.431Z,99.90
2018-06-02T07:00:34.872Z,99.90
2018-06-02T07:03:02.312Z,99.90
2018-06-02T07:05:29.758Z,99.90
2018-06-02T07:07:57.208Z,99.90
2018-06-02T07:10:25.758Z,99.90
2018-06-02T07:12:53.987Z,99.90
2018-06-02T07:15:21.539Z,99.90
2018-06-02T07:17:49.009Z,99.90
2018-06-02T07:20:16.524Z,99.90
2018-06-02T07:22:45.043Z,99.90
2018-06-02T07:25:12.496Z,99.90
2018-06-02T07:27:39.962Z,99.90
2018-06-02T07:30:07.390Z,99.90
2018-06-02T07:32:34.935Z,99.90
2018-06-02T07:35:03.171Z,99.90
2018-06-02T07:37:30.620Z,99.90
2018-06-02T07:39:58.626Z,99.90
2018-06-02T07:42:27.580Z,99.90
2018-06-02T07:44:55.328Z,99.90
2018-06-02T07:47:22.836Z,99.90
2018-06-02T07:49:51.831Z,99.90
2018-06-02T07:52:19.210Z,99.90
2018-06-02T07:54:47.907Z,99.90
2018-06-02T07:57:15.582Z,99.90
2018-06-02T07:59:43.080Z,99.90
2018-06-02T08:02:10.547Z,99.90
2018-06-02T08:04:38.007Z,99.90
2018-06-02T08:07:05.458Z,99.90
2018-06-02T08:09:32.904Z,99.90
2018-06-02T08:12:00.388Z,99.90
2018-06-02T08:14:27.823Z,99.90
2018-06-02T08:16:55.279Z,99.90
2018-06-02T08:19:22.783Z,99.90
2018-06-02T08:21:50.988Z,99.90
2018-06-02T08:24:18.476Z,99.90
2018-06-02T08:26:46.051Z,99.90
2018-06-02T08:29:13.692Z,99.90
2018-06-02T08:31:42.570Z,99.90
2018-06-02T08:34:10.001Z,99.90
2018-06-02T08:36:37.518Z,99.90
2018-06-02T08:39:05.088Z,99.90
2018-06-02T08:41:32.605Z,99.90
2018-06-02T08:44:00.045Z,99.90
2018-06-02T08:46:27.480Z,99.90
2018-06-02T08:48:55.699Z,99.90
2018-06-02T08:51:23.178Z,99.90
2018-06-02T08:53:50.638Z,99.90
2018-06-02T08:56:18.090Z,99.90
2018-06-02T08:58:45.531Z,99.90
2018-06-02T09:01:12.986Z,99.90
2018-06-02T09:03:41.545Z,99.90
2018-06-02T09:06:09.119Z,99.90
2018-06-02T09:08:36.901Z,99.90
2018-06-02T09:11:04.349Z,99.90
2018-06-02T09:13:31.867Z,99.90
2018-06-02T09:16:00.114Z,99.90
2018-06-02T09:18:27.576Z,99.90
2018-06-02T09:20:55.826Z,99.90
2018-06-02T09:23:23.288Z,99.90
2018-06-02T09:25:50.741Z,99.90
2018-06-02T09:28:19.254Z,99.90
2018-06-02T09:30:46.796Z,99.90
2018-06-02T09:33:14.378Z,99.90
2018-06-02T09:35:42.034Z,99.90
2018-06-02T09:38:09.554Z,99.90
2018-06-02T09:40:37.008Z,99.90
2018-06-02T09:43:04.483Z,99.90
2018-06-02T09:45:32.138Z,99.90
2018-06-02T09:47:59.618Z,99.90
2018-06-02T09:50:27.262Z,99.90
2018-06-02T09:52:54.699Z,99.90
2018-06-02T09:55:22.153Z,99.90
2018-06-02T09:57:49.642Z,99.90
2018-06-02T10:00:17.082Z,99.90
2018-06-02T10:02:44.557Z,99.90
2018-06-02T10:05:17.718Z,99.90
2018-06-02T10:07:46.083Z,99.90
2018-06-02T10:10:14.014Z,99.90
2018-06-02T10:12:41.546Z,99.90
2018-06-02T10:15:09.278Z,99.90
2018-06-02T10:17:37.507Z,99.90
2018-06-02T10:20:04.951Z,99.90
2018-06-02T10:22:32.891Z,99.90
2018-06-02T10:25:01.320Z,99.90
2018-06-02T10:27:28.889Z,99.90
2018-06-02T10:29:57.162Z,99.90
2018-06-02T10:32:24.746Z,99.90
2018-06-02T10:34:52.983Z,99.90
2018-06-02T10:37:26.305Z,99.90
2018-06-02T10:39:53.744Z,99.90
2018-06-02T10:42:22.554Z,99.90
2018-06-02T10:44:51.539Z,99.90
2018-06-02T10:47:20.936Z,99.90
2018-06-02T10:49:49.920Z,99.90
2018-06-02T10:52:17.496Z,99.90
2018-06-02T10:54:45.046Z,99.90
2018-06-02T10:57:13.281Z,99.90
2018-06-02T10:59:40.802Z,99.90
2018-06-02T11:02:09.446Z,99.90
2018-06-02T11:04:37.986Z,99.90
2018-06-02T11:07:07.317Z,99.90
2018-06-02T11:09:35.022Z,99.90
2018-06-02T11:12:02.542Z,99.90
2018-06-02T11:14:29.985Z,99.90
2018-06-02T11:16:57.413Z,99.90
2018-06-02T11:19:25.705Z,99.90
2018-06-02T11:21:54.138Z,99.90
2018-06-02T11:24:21.571Z,99.90
2018-06-02T11:26:49.537Z,99.90
2018-06-02T11:29:17.047Z,99.60
2018-06-02T11:31:44.498Z,99.60
2018-06-02T11:34:12.746Z,99.90
2018-06-02T11:36:40.397Z,99.90
2018-06-02T11:39:08.720Z,99.70
2018-06-02T11:41:37.159Z,99.90
2018-06-02T11:44:05.620Z,99.90
2018-06-02T11:46:34.823Z,99.90
2018-06-02T11:49:02.332Z,99.90
2018-06-02T11:51:29.779Z,99.90
2018-06-02T11:53:57.250Z,99.90
2018-06-02T11:56:24.702Z,99.60
2018-06-02T11:58:52.445Z,99.90
2018-06-02T12:01:19.925Z,99.30
2018-06-02T12:03:47.377Z,99.50
2018-06-02T12:06:14.836Z,99.40
2018-06-02T12:08:43.420Z,99.80
2018-06-02T12:11:11.682Z,99.00
2018-06-02T12:13:39.190Z,99.60
2018-06-02T12:16:06.715Z,99.30
2018-06-02T12:18:34.144Z,99.90
2018-06-02T12:21:01.604Z,99.90
2018-06-02T12:23:29.075Z,99.90
2018-06-02T12:25:57.589Z,99.90
2018-06-02T12:28:25.233Z,99.80
2018-06-02T12:30:54.004Z,99.90
2018-06-02T12:33:21.518Z,99.90
2018-06-02T12:35:50.346Z,99.90
2018-06-02T12:38:18.188Z,99.90
2018-06-02T12:40:45.721Z,99.90
2018-06-02T12:43:13.197Z,99.60
2018-06-02T12:45:41.475Z,99.90
2018-06-02T12:48:22.121Z,99.90
2018-06-02T12:50:51.140Z,99.90
2018-06-02T12:53:19.789Z,99.90
2018-06-02T12:55:47.250Z,99.90
2018-06-02T12:58:16.937Z,99.90
2018-06-02T13:00:49.541Z,99.90
2018-06-02T13:03:16.986Z,99.90
2018-06-02T13:05:44.459Z,99.90
2018-06-02T13:08:11.977Z,99.90
2018-06-02T13:10:39.421Z,99.90
2018-06-02T13:13:06.894Z,99.90
2018-06-02T13:15:34.355Z,99.90
2018-06-02T13:18:01.846Z,99.90
2018-06-02T13:20:29.326Z,99.90
2018-06-02T13:22:57.530Z,99.90
2018-06-02T13:25:25.024Z,99.90
2018-06-02T13:27:52.471Z,99.90
2018-06-02T13:30:19.940Z,99.90
2018-06-02T13:32:48.224Z,99.90
2018-06-02T13:35:18.652Z,99.90
2018-06-02T13:37:46.125Z,99.90
2018-06-02T13:40:14.473Z,99.90
2018-06-02T13:42:41.954Z,99.90
2018-06-02T13:45:10.528Z,99.90
2018-06-02T13:47:37.969Z,99.90
2018-06-02T13:50:05.469Z,99.90
2018-06-02T13:52:33.896Z,99.00
2018-06-02T13:55:01.447Z,99.00
2018-06-02T13:57:28.924Z,97.70
2018-06-02T13:59:57.270Z,99.10
2018-06-02T14:02:25.503Z,99.90
2018-06-02T14:04:53.039Z,99.80
2018-06-02T14:07:21.571Z,99.90
2018-06-02T14:09:49.874Z,99.90
2018-06-02T14:15:10.779Z,99.90
2018-06-02T14:17:40.440Z,99.90
2018-06-02T14:20:07.916Z,99.90
2018-06-02T14:22:36.567Z,99.90
2018-06-02T14:25:06.974Z,99.90
2018-06-02T14:27:35.394Z,99.90
2018-06-02T14:30:02.847Z,99.90
2018-06-02T14:32:30.415Z,99.90
2018-06-02T14:34:58.573Z,99.90
2018-06-02T14:37:26.540Z,99.90
2018-06-02T14:39:54.074Z,99.90
2018-06-02T14:42:22.306Z,99.90
2018-06-02T14:44:49.966Z,99.90
2018-06-02T14:47:17.453Z,99.90
2018-06-02T14:49:50.517Z,99.30
2018-06-02T14:52:18.302Z,99.30
2018-06-02T14:54:46.958Z,99.80
2018-06-02T14:57:14.417Z,99.50
2018-06-02T14:59:42.176Z,99.90
2018-06-02T15:02:09.600Z,99.90
2018-06-02T15:04:37.501Z,99.90
2018-06-02T15:07:05.079Z,99.50
2018-06-02T15:09:32.506Z,99.90
2018-06-02T15:11:59.987Z,99.40
2018-06-02T15:14:27.433Z,99.90
2018-06-02T15:16:55.510Z,99.90
2018-06-02T15:19:22.943Z,99.90
2018-06-02T15:21:50.394Z,99.90
2018-06-02T15:24:17.887Z,99.60
2018-06-02T15:26:45.301Z,99.90
2018-06-02T15:29:12.835Z,99.90
2018-06-02T15:31:41.268Z,99.90
2018-06-02T15:34:08.718Z,99.90
2018-06-02T15:36:36.180Z,99.90
2018-06-02T15:39:03.613Z,99.90
2018-06-02T15:41:31.062Z,99.90
2018-06-02T15:43:59.254Z,99.80
2018-06-02T15:46:27.658Z,99.90
2018-06-02T15:48:55.095Z,99.90
2018-06-02T15:51:22.549Z,99.90
2018-06-02T15:53:50.043Z,99.90
2018-06-02T15:56:17.457Z,99.90
2018-06-02T15:58:44.935Z,99.90
2018-06-02T16:01:12.410Z,99.90
2018-06-02T16:03:39.909Z,99.90
2018-06-02T16:06:07.329Z,99.90
2018-06-02T16:08:34.847Z,99.90
2018-06-02T16:11:02.589Z,99.90
2018-06-02T16:13:30.055Z,99.90
2018-06-02T16:15:58.290Z,99.90
2018-06-02T16:18:26.072Z,99.90
2018-06-02T16:20:54.330Z,99.90
2018-06-02T16:23:21.771Z,99.90
2018-06-02T16:25:49.206Z,99.90
2018-06-02T16:28:16.652Z,99.90
2018-06-02T16:30:45.398Z,99.90
2018-06-02T16:33:12.990Z,99.90
2018-06-02T16:35:41.622Z,99.90
2018-06-02T16:38:09.078Z,99.90
2018-06-02T16:40:37.351Z,99.90
2018-06-02T16:43:04.865Z,99.90
2018-06-02T16:45:33.070Z,99.90
2018-06-02T16:48:01.318Z,99.90
2018-06-02T16:50:29.785Z,99.90
2018-06-02T16:52:57.313Z,99.90
2018-06-02T16:55:24.794Z,99.90
2018-06-02T16:57:52.266Z,99.90
2018-06-02T17:00:19.729Z,99.90
2018-06-02T17:02:48.578Z,99.90
2018-06-02T17:05:16.037Z,99.90
2018-06-02T17:07:43.483Z,99.90
2018-06-02T17:10:10.949Z,99.90
2018-06-02T17:12:40.834Z,99.90
2018-06-02T17:15:08.354Z,99.90
2018-06-02T17:17:35.842Z,99.90
2018-06-02T17:20:05.057Z,99.90
2018-06-02T17:22:33.268Z,99.90
2018-06-02T17:25:00.705Z,99.90
2018-06-02T17:27:28.146Z,99.90
2018-06-02T17:29:55.848Z,99.90
2018-06-02T17:32:23.266Z,99.90
2018-06-02T17:34:50.702Z,99.90
2018-06-02T17:37:18.922Z,99.90
2018-06-02T17:39:46.406Z,99.90
2018-06-02T17:42:13.896Z,99.90
2018-06-02T17:44:42.202Z,99.90
2018-06-02T17:47:09.890Z,99.90
2018-06-02T17:49:37.381Z,99.90
2018-06-02T17:52:04.880Z,99.90
2018-06-02T17:54:32.332Z,99.90
2018-06-02T17:57:00.666Z,99.90
2018-06-02T17:59:28.188Z,99.90
2018-06-02T18:01:55.662Z,99.90
2018-06-02T18:04:23.110Z,99.90
2018-06-02T18:06:50.564Z,99.90
2018-06-02T18:09:18.071Z,99.90
2018-06-02T18:11:45.511Z,99.90
2018-06-02T18:14:13.147Z,99.90
2018-06-02T18:16:40.611Z,99.90
2018-06-02T18:19:08.102Z,99.90
2018-06-02T18:21:35.720Z,99.90
2018-06-02T18:24:03.305Z,99.90
2018-06-02T18:26:31.628Z,99.90
2018-06-02T18:28:59.851Z,99.90
2018-06-02T18:31:28.782Z,99.90
2018-06-02T18:33:56.242Z,99.90
2018-06-02T18:36:24.514Z,99.90
2018-06-02T18:38:51.960Z,99.90
2018-06-02T18:41:20.065Z,99.90
2018-06-02T18:43:48.588Z,99.90
2018-06-02T18:46:16.275Z,99.90
2018-06-02T18:48:43.719Z,99.90
2018-06-02T18:51:11.307Z,99.90
2018-06-02T18:53:39.272Z,99.90
2018-06-02T18:56:06.703Z,99.90
2018-06-02T18:58:34.169Z,99.90
2018-06-02T19:01:01.692Z,99.90
2018-06-02T19:03:29.061Z,99.90
2018-06-02T19:05:56.518Z,99.90
2018-06-02T19:08:23.997Z,99.90
2018-06-02T19:10:51.447Z,99.90
2018-06-02T19:13:18.903Z,99.90
2018-06-02T19:15:46.746Z,99.90
2018-06-02T19:18:14.248Z,99.90
2018-06-02T19:20:41.690Z,99.90
2018-06-02T19:23:09.542Z,99.90
2018-06-02T19:25:37.006Z,99.90
2018-06-02T19:28:05.534Z,99.90
2018-06-02T19:30:33.261Z,99.90
2018-06-02T19:33:00.713Z,99.90
2018-06-02T19:35:32.654Z,99.90
2018-06-02T19:38:00.335Z,99.90
2018-06-02T19:40:29.150Z,99.90
2018-06-02T19:42:57.580Z,99.90
2018-06-02T19:45:25.285Z,99.90
2018-06-02T19:47:52.874Z,99.90
2018-06-02T19:50:21.158Z,99.90
2018-06-02T19:52:49.722Z,99.90
2018-06-02T19:55:17.174Z,99.90
2018-06-02T19:57:44.651Z,99.90
2018-06-02T20:00:12.115Z,99.90
2018-06-02T20:02:39.981Z,99.90
2018-06-02T20:05:12.255Z,99.90
2018-06-02T20:07:39.742Z,99.90
2018-06-02T20:10:11.236Z,99.90
2018-06-02T20:12:38.807Z,99.90
2018-06-02T20:15:06.298Z,99.90
2018-06-02T20:17:36.848Z,99.90
2018-06-02T20:20:14.045Z,99.90
2018-06-02T20:22:51.666Z,99.90
2018-06-02T20:25:19.131Z,99.90
2018-06-02T20:27:46.659Z,99.90
2018-06-02T20:30:14.453Z,99.90
2018-06-02T20:32:42.146Z,99.90
2018-06-02T20:35:10.356Z,99.90
2018-06-02T20:37:37.862Z,99.90
2018-06-02T20:40:06.171Z,99.90
2018-06-02T20:42:33.596Z,99.90
2018-06-02T20:45:03.283Z,99.90
2018-06-02T20:47:30.726Z,99.90
2018-06-02T20:49:58.804Z,99.90
2018-06-02T20:52:26.237Z,99.90
2018-06-02T20:54:53.673Z,99.90
2018-06-02T20:57:22.391Z,99.90
2018-06-02T20:59:49.853Z,99.90
2018-06-02T21:02:17.940Z,99.90
2018-06-02T21:04:45.382Z,99.90
2018-06-02T21:07:12.818Z,99.90
2018-06-02T21:09:40.277Z,99.90
2018-06-02T21:12:08.581Z,99.90
2018-06-02T21:14:36.098Z,99.90
2018-06-02T21:17:04.303Z,99.90
2018-06-02T21:19:31.796Z,99.90
2018-06-02T21:21:59.449Z,99.90
2018-06-02T21:24:26.910Z,99.90
2018-06-02T21:26:54.388Z,99.90
2018-06-02T21:29:22.143Z,99.90
2018-06-02T21:31:49.878Z,99.90
2018-06-02T21:34:17.334Z,99.90
2018-06-02T21:36:46.724Z,99.90
2018-06-02T21:39:14.219Z,99.90
2018-06-02T21:41:41.702Z,99.90
2018-06-02T21:44:09.256Z,99.90
2018-06-02T21:46:37.602Z,99.90
2018-06-02T21:49:05.221Z,99.90
2018-06-02T21:51:33.425Z,99.90
2018-06-02T21:54:00.858Z,99.90
2018-06-02T21:56:29.070Z,99.90
2018-06-02T21:58:56.515Z,99.90
2018-06-02T22:01:23.956Z,99.90
2018-06-02T22:03:51.397Z,99.90
2018-06-02T22:06:19.856Z,99.90
2018-06-02T22:08:47.286Z,99.90
2018-06-02T22:11:14.736Z,99.90
2018-06-02T22:13:42.162Z,99.90
2018-06-02T22:16:09.754Z,99.90
2018-06-02T22:18:37.249Z,99.90
2018-06-02T22:21:05.449Z,99.90
2018-06-02T22:23:33.674Z,99.90
2018-06-02T22:26:01.181Z,99.90
2018-06-02T22:28:29.384Z,99.90
2018-06-02T22:30:57.039Z,99.90
2018-06-02T22:33:24.856Z,99.90
2018-06-02T22:35:52.298Z,99.90
2018-06-02T22:38:19.838Z,99.90
2018-06-02T22:40:47.310Z,99.90
2018-06-02T22:43:14.744Z,99.90
2018-06-02T22:45:42.217Z,99.90
2018-06-02T22:48:09.673Z,99.90
2018-06-02T22:50:37.122Z,99.90
2018-06-02T22:53:04.637Z,99.90
2018-06-02T22:55:32.053Z,99.90
2018-06-02T22:57:59.711Z,99.90
2018-06-02T23:00:27.145Z,99.90
2018-06-02T23:02:54.648Z,99.90
2018-06-02T23:05:22.122Z,99.90
2018-06-02T23:07:49.671Z,99.90
2018-06-02T23:10:17.106Z,99.90
2018-06-02T23:12:45.306Z,99.90
2018-06-02T23:15:12.842Z,99.90
2018-06-02T23:17:40.274Z,99.90
2018-06-02T23:20:07.756Z,99.90
2018-06-02T23:22:40.181Z,99.90
2018-06-02T23:25:08.386Z,99.90
2018-06-02T23:27:36.167Z,99.90
2018-06-02T23:30:03.606Z,99.90
2018-06-02T23:32:31.059Z,99.90
2018-06-02T23:34:58.490Z,99.90
2018-06-02T23:37:26.778Z,99.90
2018-06-02T23:39:55.990Z,99.90
2018-06-02T23:42:23.449Z,99.90
2018-06-02T23:44:50.893Z,99.90
2018-06-02T23:47:19.090Z,99.90
2018-06-02T23:49:46.514Z,99.90
2018-06-02T23:52:14.726Z,99.90
2018-06-02T23:54:42.298Z,99.90
2018-06-02T23:57:09.752Z,99.90
2018-06-02T23:59:37.190Z,99.90
